Time;durP1;ratioP1;P1;durP2;ratioP2;P2;SDS_P1;SDS_P2;PMS_P1;PMS_P2;Temp;Humidity;BMP_temperature;BMP_pressure;BME280_temperature;BME280_humidity;BME280_pressure;Samples;Min_cycle;Max_cycle;Signal;HPM_P1;HPM_P2
2022/02/15 00:00:19;;;;;;;29.85;17.65;;;;;;;;;;5075986;28;20119;-79
2022/02/15 00:02:45;;;;;;;32.95;18.88;;;;;;;;;;5077200;28;20099;-79
2022/02/15 00:05:11;;;;;;;32.22;17.83;;;;;;;;;;5077315;28;20043;-79
2022/02/15 00:07:38;;;;;;;28.77;17.63;;;;;;;;;;5076810;28;20061;-79
2022/02/15 00:10:05;;;;;;;26.08;16.20;;;;;;;;;;5077127;28;20029;-79
2022/02/15 00:12:31;;;;;;;26.95;17.50;;;;;;;;;;5076860;28;20032;-79
2022/02/15 00:14:57;;;;;;;33.15;18.33;;;;;;;;;;5077220;28;20064;-84
2022/02/15 00:17:24;;;;;;;32.08;18.65;;;;;;;;;;5077607;28;20029;-84
2022/02/15 00:19:50;;;;;;;29.40;18.13;;;;;;;;;;5076252;28;20378;-84
2022/02/15 00:22:16;;;;;;;27.35;17.15;;;;;;;;;;5077434;28;20017;-83
2022/02/15 00:24:43;;;;;;;27.15;17.33;;;;;;;;;;5077334;28;20020;-85
2022/02/15 00:27:09;;;;;;;28.10;17.70;;;;;;;;;;5077744;28;20036;-84
2022/02/15 00:29:35;;;;;;;28.90;18.05;;;;;;;;;;5077509;28;20028;-84
2022/02/15 00:32:01;;;;;;;26.27;18.05;;;;;;;;;;5077656;28;20020;-87
2022/02/15 00:34:27;;;;;;;28.60;16.88;;;;;;;;;;5077468;28;20103;-84
2022/02/15 00:36:53;;;;;;;28.83;18.23;;;;;;;;;;5076327;28;20094;-85
2022/02/15 00:39:19;;;;;;;29.98;18.10;;;;;;;;;;5077576;28;20338;-86
2022/02/15 00:41:45;;;;;;;29.73;17.77;;;;;;;;;;5076203;28;20120;-85
2022/02/15 00:44:11;;;;;;;30.55;17.23;;;;;;;;;;5077169;28;20028;-86
2022/02/15 00:46:37;;;;;;;28.20;16.58;;;;;;;;;;5077159;28;20028;-86
2022/02/15 00:49:03;;;;;;;30.33;17.05;;;;;;;;;;5077154;28;20441;-82
2022/02/15 00:51:29;;;;;;;29.88;17.15;;;;;;;;;;5077036;28;20029;-90
2022/02/15 00:53:55;;;;;;;25.23;16.42;;;;;;;;;;5077116;28;20031;-88
2022/02/15 00:56:21;;;;;;;28.55;17.10;;;;;;;;;;5077270;28;20025;-86
2022/02/15 00:58:47;;;;;;;27.70;17.45;;;;;;;;;;5076176;28;20028;-87
2022/02/15 01:01:13;;;;;;;25.92;16.55;;;;;;;;;;5077353;28;20025;-87
2022/02/15 01:03:39;;;;;;;24.90;16.15;;;;;;;;;;5076161;28;20028;-87
2022/02/15 01:06:06;;;;;;;28.10;16.70;;;;;;;;;;5076080;28;20032;-87
2022/02/15 01:08:32;;;;;;;27.55;16.33;;;;;;;;;;5080138;28;20120;-87
2022/02/15 01:10:58;;;;;;;31.10;17.20;;;;;;;;;;5079975;28;20029;-87
2022/02/15 01:19:31;;;;;;;28.17;17.02;;;;;;;;;;5080737;28;20039;-87
2022/02/15 01:21:57;;;;;;;29.52;17.10;;;;;;;;;;5080808;28;20372;-87
2022/02/15 01:24:23;;;;;;;26.02;16.42;;;;;;;;;;5080835;28;20017;-87
2022/02/15 01:26:50;;;;;;;25.45;17.25;;;;;;;;;;5080926;28;20062;-87
2022/02/15 01:29:35;;;;;;;32.10;17.50;;;;;;;;;;5080913;28;20035;-87
2022/02/15 01:32:01;;;;;;;29.35;16.95;;;;;;;;;;5080386;28;20025;-86
2022/02/15 01:34:28;;;;;;;27.05;16.95;;;;;;;;;;5080777;28;20049;-86
2022/02/15 01:36:54;;;;;;;27.05;17.42;;;;;;;;;;5080491;28;20033;-87
2022/02/15 01:39:20;;;;;;;28.92;17.02;;;;;;;;;;5080580;28;20044;-86
2022/02/15 01:41:46;;;;;;;28.75;16.85;;;;;;;;;;5080557;28;20028;-86
2022/02/15 01:44:32;;;;;;;30.98;16.77;;;;;;;;;;5080243;28;20017;-87
2022/02/15 01:46:59;;;;;;;29.33;16.60;;;;;;;;;;5079390;28;20027;-86
2022/02/15 01:49:25;;;;;;;28.52;16.05;;;;;;;;;;5080132;28;20028;-86
2022/02/15 01:51:51;;;;;;;26.50;16.48;;;;;;;;;;5080416;28;20034;-86
2022/02/15 01:54:17;;;;;;;29.42;17.00;;;;;;;;;;5080279;28;20056;-87
2022/02/15 01:56:43;;;;;;;29.23;17.38;;;;;;;;;;5079717;28;20036;-87
2022/02/15 01:59:09;;;;;;;29.38;18.30;;;;;;;;;;5080174;28;20349;-88
2022/02/15 02:01:36;;;;;;;28.27;17.10;;;;;;;;;;5080177;28;20028;-87
2022/02/15 02:04:02;;;;;;;31.27;17.15;;;;;;;;;;5080091;28;20024;-88
2022/02/15 02:06:28;;;;;;;29.15;17.02;;;;;;;;;;5080246;28;20070;-87
2022/02/15 02:08:54;;;;;;;29.38;17.63;;;;;;;;;;5079647;28;20055;-88
2022/02/15 02:11:20;;;;;;;27.20;16.40;;;;;;;;;;5079703;28;20056;-86
2022/02/15 02:13:46;;;;;;;28.08;17.08;;;;;;;;;;5079755;28;20025;-87
2022/02/15 02:16:12;;;;;;;28.20;16.67;;;;;;;;;;5079680;28;20044;-88
2022/02/15 02:18:39;;;;;;;27.30;17.65;;;;;;;;;;5078310;28;20029;-88
2022/02/15 02:21:05;;;;;;;30.30;17.05;;;;;;;;;;5079323;28;20399;-88
2022/02/15 02:23:31;;;;;;;29.80;17.25;;;;;;;;;;5078924;28;20334;-89
2022/02/15 02:25:58;;;;;;;30.60;17.70;;;;;;;;;;5079589;28;20024;-88
2022/02/15 02:28:24;;;;;;;24.92;16.80;;;;;;;;;;5078662;28;20024;-88
2022/02/15 02:30:50;;;;;;;31.40;16.60;;;;;;;;;;5079242;28;20028;-88
2022/02/15 02:33:16;;;;;;;27.95;16.80;;;;;;;;;;5079600;28;20055;-87
2022/02/15 02:35:42;;;;;;;28.13;17.25;;;;;;;;;;5079231;28;20025;-86
2022/02/15 02:38:08;;;;;;;27.70;17.65;;;;;;;;;;5078788;28;20028;-86
2022/02/15 02:40:35;;;;;;;32.90;18.65;;;;;;;;;;5079494;28;20039;-86
2022/02/15 02:43:01;;;;;;;30.67;18.77;;;;;;;;;;5079478;28;20021;-86
2022/02/15 02:45:28;;;;;;;34.72;19.92;;;;;;;;;;5079239;28;20036;-85
2022/02/15 02:47:54;;;;;;;42.55;22.40;;;;;;;;;;5078420;28;20095;-88
2022/02/15 02:50:24;;;;;;;52.25;23.77;;;;;;;;;;5079204;28;20338;-87
2022/02/15 02:52:50;;;;;;;51.75;24.88;;;;;;;;;;5079256;28;20029;-87
2022/02/15 02:55:17;;;;;;;52.95;25.63;;;;;;;;;;5079198;28;20028;-87
2022/02/15 02:57:43;;;;;;;57.70;28.10;;;;;;;;;;5079095;28;20056;-87
2022/02/15 03:03:12;;;;;;;44.80;23.70;;;;;;;;;;5078955;28;20112;-87
2022/02/15 03:05:38;;;;;;;48.40;24.55;;;;;;;;;;5078766;28;20024;-87
2022/02/15 03:08:04;;;;;;;39.58;21.77;;;;;;;;;;5077506;28;20107;-87
2022/02/15 03:10:30;;;;;;;33.72;20.60;;;;;;;;;;5078601;28;20024;-87
2022/02/15 03:12:56;;;;;;;30.05;19.50;;;;;;;;;;5078842;28;20092;-87
2022/02/15 03:15:22;;;;;;;30.42;19.77;;;;;;;;;;5078756;28;20022;-86
2022/02/15 03:17:48;;;;;;;32.85;19.58;;;;;;;;;;5077420;28;20029;-87
2022/02/15 03:20:14;;;;;;;29.58;18.45;;;;;;;;;;5078608;28;20020;-87
2022/02/15 03:22:40;;;;;;;30.48;18.48;;;;;;;;;;5078596;28;20016;-88
2022/02/15 03:25:06;;;;;;;31.27;18.92;;;;;;;;;;5078748;28;20020;-87
2022/02/15 03:27:32;;;;;;;32.60;19.27;;;;;;;;;;5078656;28;20027;-88
2022/02/15 03:29:59;;;;;;;38.13;19.85;;;;;;;;;;5076486;28;20048;-87
2022/02/15 03:32:25;;;;;;;31.73;19.25;;;;;;;;;;5078167;28;20032;-88
2022/02/15 03:34:51;;;;;;;30.20;18.05;;;;;;;;;;5078145;28;20036;-88
2022/02/15 03:37:17;;;;;;;40.97;18.63;;;;;;;;;;5078049;28;20070;-87
2022/02/15 03:39:43;;;;;;;26.80;16.88;;;;;;;;;;5077916;28;20033;-87
2022/02/15 03:44:54;;;;;;;29.50;17.00;;;;;;;;;;5078426;28;20059;-88
2022/02/15 03:47:20;;;;;;;31.65;18.77;;;;;;;;;;5077949;28;20470;-88
2022/02/15 03:49:46;;;;;;;30.40;18.08;;;;;;;;;;5077662;28;20115;-87
2022/02/15 03:52:12;;;;;;;24.60;16.40;;;;;;;;;;5077873;28;20451;-88
2022/02/15 03:54:38;;;;;;;27.73;18.38;;;;;;;;;;5078295;28;20040;-88
2022/02/15 03:57:05;;;;;;;30.40;18.10;;;;;;;;;;5077873;28;20042;-88
2022/02/15 03:59:31;;;;;;;30.40;18.45;;;;;;;;;;5077705;28;20079;-87
2022/02/15 04:01:57;;;;;;;27.77;17.38;;;;;;;;;;5077746;28;20036;-88
2022/02/15 04:04:23;;;;;;;35.38;20.98;;;;;;;;;;5077791;28;20429;-87
2022/02/15 04:06:51;;;;;;;39.88;22.55;;;;;;;;;;5077539;28;20407;-87
2022/02/15 04:09:17;;;;;;;36.97;20.77;;;;;;;;;;5078057;28;20033;-87
2022/02/15 04:11:43;;;;;;;39.20;22.17;;;;;;;;;;5077942;28;20024;-87
2022/02/15 04:14:09;;;;;;;32.92;20.73;;;;;;;;;;5077966;28;20343;-85
2022/02/15 04:16:37;;;;;;;29.83;18.75;;;;;;;;;;5076646;28;20494;-87
2022/02/15 04:19:03;;;;;;;30.15;18.95;;;;;;;;;;5076636;28;20438;-85
2022/02/15 04:21:29;;;;;;;32.60;18.02;;;;;;;;;;5077874;28;20401;-88
2022/02/15 04:23:55;;;;;;;28.83;18.90;;;;;;;;;;5077554;28;20108;-87
2022/02/15 04:26:22;;;;;;;33.92;19.63;;;;;;;;;;5076637;28;20021;-87
2022/02/15 04:28:48;;;;;;;31.55;18.80;;;;;;;;;;5077723;28;20036;-88
2022/02/15 04:31:14;;;;;;;31.13;18.98;;;;;;;;;;5077438;28;20115;-87
2022/02/15 04:33:40;;;;;;;30.60;19.17;;;;;;;;;;5076533;28;20025;-87
2022/02/15 04:36:07;;;;;;;31.70;18.80;;;;;;;;;;5077493;28;20037;-87
2022/02/15 04:38:34;;;;;;;31.85;18.77;;;;;;;;;;5077186;28;20033;-87
2022/02/15 04:41:00;;;;;;;31.52;18.92;;;;;;;;;;5077261;28;20025;-87
2022/02/15 04:43:26;;;;;;;31.70;19.20;;;;;;;;;;5081678;28;20016;-86
2022/02/15 04:46:11;;;;;;;36.08;19.83;;;;;;;;;;5081497;28;20052;-87
2022/02/15 04:48:37;;;;;;;34.70;19.88;;;;;;;;;;5081350;28;20048;-86
2022/02/15 04:51:03;;;;;;;33.53;19.48;;;;;;;;;;5081544;28;20314;-87
2022/02/15 04:53:29;;;;;;;34.90;19.50;;;;;;;;;;5081653;28;20153;-87
2022/02/15 04:55:55;;;;;;;34.97;19.27;;;;;;;;;;5081208;28;20025;-87
2022/02/15 04:58:21;;;;;;;28.70;17.40;;;;;;;;;;5081239;28;20028;-86
2022/02/15 05:03:51;;;;;;;34.65;17.55;;;;;;;;;;5081241;28;20051;-87
2022/02/15 05:06:17;;;;;;;32.28;19.17;;;;;;;;;;5081230;28;20414;-87
2022/02/15 05:08:43;;;;;;;29.13;18.05;;;;;;;;;;5080894;28;20354;-87
2022/02/15 05:11:09;;;;;;;29.67;18.83;;;;;;;;;;5081099;28;20039;-88
2022/02/15 05:13:35;;;;;;;27.50;17.40;;;;;;;;;;5080840;28;20066;-87
2022/02/15 05:16:02;;;;;;;27.70;17.05;;;;;;;;;;5080567;28;20051;-87
2022/02/15 05:18:28;;;;;;;30.38;18.00;;;;;;;;;;5080561;28;20028;-87
2022/02/15 05:20:54;;;;;;;31.40;18.40;;;;;;;;;;5080619;28;20021;-87
2022/02/15 05:23:20;;;;;;;26.67;17.00;;;;;;;;;;5080618;28;20040;-89
2022/02/15 05:25:46;;;;;;;28.55;15.88;;;;;;;;;;5080615;28;20037;-86
2022/02/15 05:28:12;;;;;;;26.67;17.23;;;;;;;;;;5080710;28;20060;-85
2022/02/15 05:30:38;;;;;;;28.25;17.40;;;;;;;;;;5080323;28;20021;-86
2022/02/15 05:33:04;;;;;;;31.85;17.92;;;;;;;;;;5080526;28;20032;-86
2022/02/15 05:35:30;;;;;;;35.97;18.58;;;;;;;;;;5080385;28;20017;-86
2022/02/15 05:37:56;;;;;;;33.90;18.60;;;;;;;;;;5080419;28;20032;-85
2022/02/15 05:40:22;;;;;;;34.17;18.77;;;;;;;;;;5079182;28;20028;-86
2022/02/15 05:42:48;;;;;;;35.47;18.98;;;;;;;;;;5080199;28;20024;-86
2022/02/15 05:45:15;;;;;;;32.92;18.05;;;;;;;;;;5080168;28;20444;-86
2022/02/15 05:47:41;;;;;;;28.67;16.88;;;;;;;;;;5080167;28;20103;-85
2022/02/15 05:52:52;;;;;;;31.77;17.65;;;;;;;;;;5079514;28;20047;-88
2022/02/15 05:55:18;;;;;;;30.27;17.33;;;;;;;;;;5080197;28;20070;-87
2022/02/15 05:57:44;;;;;;;31.83;16.30;;;;;;;;;;5080154;28;20052;-88
2022/02/15 06:00:11;;;;;;;27.65;17.42;;;;;;;;;;5080008;28;20111;-86
2022/02/15 06:02:37;;;;;;;29.90;17.10;;;;;;;;;;5078964;28;20238;-86
2022/02/15 06:05:03;;;;;;;29.85;17.30;;;;;;;;;;5078916;28;20116;-87
2022/02/15 06:07:29;;;;;;;26.77;16.23;;;;;;;;;;5079712;28;20071;-87
2022/02/15 06:09:57;;;;;;;29.02;17.30;;;;;;;;;;5079894;28;20029;-88
2022/02/15 06:12:23;;;;;;;33.28;16.95;;;;;;;;;;5078882;28;20036;-88
2022/02/15 06:14:49;;;;;;;27.83;15.98;;;;;;;;;;5079741;28;20054;-88
2022/02/15 06:17:15;;;;;;;33.83;16.45;;;;;;;;;;5079836;28;20303;-87
2022/02/15 06:19:41;;;;;;;30.75;16.70;;;;;;;;;;5079514;28;20021;-87
2022/02/15 06:22:07;;;;;;;26.15;15.27;;;;;;;;;;5079631;28;20063;-87
2022/02/15 06:24:33;;;;;;;27.35;15.75;;;;;;;;;;5079970;28;20025;-87
2022/02/15 06:27:02;;;;;;;31.30;16.15;;;;;;;;;;5079352;28;20025;-87
2022/02/15 06:29:32;;;;;;;30.00;16.30;;;;;;;;;;5078446;28;20025;-88
2022/02/15 06:31:58;;;;;;;28.70;16.08;;;;;;;;;;5078388;28;20426;-88
2022/02/15 06:34:25;;;;;;;40.55;17.42;;;;;;;;;;5079291;28;20406;-87
2022/02/15 06:36:51;;;;;;;33.55;16.27;;;;;;;;;;5079578;28;20063;-88
2022/02/15 06:39:18;;;;;;;27.73;15.77;;;;;;;;;;5078273;28;20127;-88
2022/02/15 06:41:44;;;;;;;24.92;15.38;;;;;;;;;;5079151;28;20021;-87
2022/02/15 06:44:10;;;;;;;29.25;15.88;;;;;;;;;;5079281;28;20058;-87
2022/02/15 06:46:36;;;;;;;30.73;16.25;;;;;;;;;;5077829;28;20027;-87
2022/02/15 06:49:03;;;;;;;30.55;15.75;;;;;;;;;;5078115;28;20025;-87
2022/02/15 06:51:29;;;;;;;35.35;17.13;;;;;;;;;;5078917;28;20026;-87
2022/02/15 06:53:55;;;;;;;43.17;18.15;;;;;;;;;;5078994;28;20052;-88
2022/02/15 06:56:22;;;;;;;48.40;19.38;;;;;;;;;;5079044;28;20078;-87
2022/02/15 06:58:48;;;;;;;44.92;17.67;;;;;;;;;;5078911;28;20024;-86
2022/02/15 07:01:14;;;;;;;63.70;21.55;;;;;;;;;;5078842;28;20059;-86
2022/02/15 07:03:40;;;;;;;60.00;21.33;;;;;;;;;;5078771;28;20020;-86
2022/02/15 07:06:08;;;;;;;64.13;19.00;;;;;;;;;;5078606;28;20024;-86
2022/02/15 07:08:34;;;;;;;71.20;22.27;;;;;;;;;;5078161;28;20055;-86
2022/02/15 07:11:00;;;;;;;59.85;21.42;;;;;;;;;;5078885;28;20051;-87
2022/02/15 07:13:30;;;;;;;50.72;20.20;;;;;;;;;;5078739;28;20035;-87
2022/02/15 07:15:56;;;;;;;47.83;18.75;;;;;;;;;;5078471;28;20024;-86
2022/02/15 07:18:26;;;;;;;50.83;19.55;;;;;;;;;;5077386;28;20032;-86
2022/02/15 07:20:52;;;;;;;50.88;19.25;;;;;;;;;;5071549;28;20033;-86
2022/02/15 07:23:18;;;;;;;51.25;20.83;;;;;;;;;;5082966;28;20098;-86
2022/02/15 07:25:44;;;;;;;53.63;21.35;;;;;;;;;;5089783;28;20016;-86
2022/02/15 07:28:10;;;;;;;48.10;22.05;;;;;;;;;;5077109;28;20025;-86
2022/02/15 07:30:36;;;;;;;36.42;18.67;;;;;;;;;;5078556;28;20031;-87
2022/02/15 07:33:03;;;;;;;38.60;19.33;;;;;;;;;;5077144;28;20047;-88
2022/02/15 07:35:31;;;;;;;52.13;20.67;;;;;;;;;;5078255;28;20074;-88
2022/02/15 07:37:57;;;;;;;62.75;20.83;;;;;;;;;;5072803;28;20095;-88
2022/02/15 07:40:23;;;;;;;73.53;21.08;;;;;;;;;;5057999;28;20051;-87
2022/02/15 07:42:49;;;;;;;48.60;21.35;;;;;;;;;;5063441;28;20350;-88
2022/02/15 07:45:18;;;;;;;49.35;20.35;;;;;;;;;;5057860;28;20021;-88
2022/02/15 07:47:51;;;;;;;55.00;19.75;;;;;;;;;;5058054;28;20047;-88
2022/02/15 07:50:18;;;;;;;70.40;21.33;;;;;;;;;;5057884;28;20028;-87
2022/02/15 07:52:45;;;;;;;53.88;20.00;;;;;;;;;;5057868;28;20025;-86
2022/02/15 07:55:12;;;;;;;42.55;18.63;;;;;;;;;;5057002;28;20021;-86
2022/02/15 07:57:38;;;;;;;50.83;18.55;;;;;;;;;;5057595;28;20415;-86
2022/02/15 08:00:05;;;;;;;45.70;19.02;;;;;;;;;;5057488;28;20421;-86
2022/02/15 08:02:31;;;;;;;44.17;18.23;;;;;;;;;;5064044;28;20056;-86
2022/02/15 08:04:58;;;;;;;44.97;16.88;;;;;;;;;;5069084;28;20033;-86
2022/02/15 08:07:24;;;;;;;30.85;16.00;;;;;;;;;;5060348;28;20304;-87
2022/02/15 08:09:50;;;;;;;28.20;16.15;;;;;;;;;;5076648;28;20310;-87
2022/02/15 08:12:19;;;;;;;35.85;16.77;;;;;;;;;;5073051;28;20024;-87
2022/02/15 08:14:45;;;;;;;29.63;15.95;;;;;;;;;;5063277;28;20071;-87
2022/02/15 08:17:12;;;;;;;31.90;17.20;;;;;;;;;;5060366;28;20029;-87
2022/02/15 08:19:38;;;;;;;43.78;17.10;;;;;;;;;;5070720;28;20032;-87
2022/02/15 08:22:04;;;;;;;29.75;16.50;;;;;;;;;;5077559;28;20017;-88
2022/02/15 08:24:30;;;;;;;45.60;22.83;;;;;;;;;;5077104;28;20025;-88
2022/02/15 08:26:57;;;;;;;32.20;19.17;;;;;;;;;;5077411;28;20024;-87
2022/02/15 08:29:44;;;;;;;31.63;18.17;;;;;;;;;;5077797;28;20074;-89
2022/02/15 08:32:11;;;;;;;29.25;17.90;;;;;;;;;;5077673;28;20025;-88
2022/02/15 08:34:37;;;;;;;38.65;21.30;;;;;;;;;;5076573;28;20060;-88
2022/02/15 08:37:04;;;;;;;34.95;21.00;;;;;;;;;;5077650;28;20028;-88
2022/02/15 08:39:30;;;;;;;30.05;19.02;;;;;;;;;;5077057;28;20425;-88
2022/02/15 08:41:56;;;;;;;31.60;18.13;;;;;;;;;;5077357;28;20464;-86
2022/02/15 08:44:23;;;;;;;27.90;17.35;;;;;;;;;;5076089;28;20052;-86
2022/02/15 08:46:52;;;;;;;26.30;15.80;;;;;;;;;;5077306;28;20070;-86
2022/02/15 08:49:18;;;;;;;28.20;16.67;;;;;;;;;;5076396;28;20037;-86
2022/02/15 08:51:44;;;;;;;28.00;16.33;;;;;;;;;;5076347;28;20024;-87
2022/02/15 08:54:10;;;;;;;24.23;15.27;;;;;;;;;;5076808;28;20087;-86
2022/02/15 08:56:37;;;;;;;24.30;13.73;;;;;;;;;;5077260;28;20028;-86
2022/02/15 08:59:03;;;;;;;19.83;12.57;;;;;;;;;;5072002;28;20021;-86
2022/02/15 09:01:32;;;;;;;20.92;12.18;;;;;;;;;;5074730;28;20064;-84
2022/02/15 09:03:58;;;;;;;21.17;12.30;;;;;;;;;;5062240;28;20033;-87
2022/02/15 09:06:24;;;;;;;18.60;12.57;;;;;;;;;;5071018;28;20108;-87
2022/02/15 09:08:50;;;;;;;17.98;11.98;;;;;;;;;;5055632;28;20065;-86
2022/02/15 09:11:16;;;;;;;20.02;11.98;;;;;;;;;;5066121;28;20044;-87
2022/02/15 09:13:42;;;;;;;18.98;12.13;;;;;;;;;;5062931;28;20028;-86
2022/02/15 09:19:12;;;;;;;29.27;13.55;;;;;;;;;;5057141;28;20039;-85
2022/02/15 09:21:39;;;;;;;34.05;15.25;;;;;;;;;;5069062;28;20326;-88
2022/02/15 09:24:05;;;;;;;43.38;16.80;;;;;;;;;;5064436;28;20471;-85
2022/02/15 09:26:32;;;;;;;22.52;13.27;;;;;;;;;;5059493;28;20123;-85
2022/02/15 09:28:58;;;;;;;32.88;18.08;;;;;;;;;;5065549;28;20028;-85
2022/02/15 09:31:24;;;;;;;28.38;16.02;;;;;;;;;;5060910;28;20367;-85
2022/02/15 09:33:54;;;;;;;25.52;15.20;;;;;;;;;;5060284;28;20057;-87
2022/02/15 09:36:20;;;;;;;27.75;16.40;;;;;;;;;;5060626;28;20063;-86
2022/02/15 09:38:46;;;;;;;20.33;11.77;;;;;;;;;;5063793;28;20403;-85
2022/02/15 09:41:13;;;;;;;22.70;13.10;;;;;;;;;;5071652;28;20106;-86
2022/02/15 09:43:39;;;;;;;17.08;10.85;;;;;;;;;;5060519;28;20324;-86
2022/02/15 09:46:13;;;;;;;40.20;15.95;;;;;;;;;;5063351;28;20414;-84
2022/02/15 09:48:40;;;;;;;31.42;13.35;;;;;;;;;;5066846;28;20036;-84
2022/02/15 09:51:06;;;;;;;32.90;12.77;;;;;;;;;;5073395;28;20044;-86
2022/02/15 09:53:32;;;;;;;28.85;12.40;;;;;;;;;;5059024;28;20057;-85
2022/02/15 09:55:59;;;;;;;28.80;16.52;;;;;;;;;;5059921;28;20021;-83
2022/02/15 09:58:25;;;;;;;24.88;15.07;;;;;;;;;;5074723;28;20027;-87
2022/02/15 10:01:13;;;;;;;20.45;12.57;;;;;;;;;;5077499;28;20020;-85
2022/02/15 10:03:49;;;;;;;32.42;13.65;;;;;;;;;;5079681;28;20036;-81
2022/02/15 10:06:15;;;;;;;22.98;12.52;;;;;;;;;;5077199;28;20029;-80
2022/02/15 10:08:41;;;;;;;32.08;12.40;;;;;;;;;;5079030;28;20472;-79
2022/02/15 10:11:11;;;;;;;23.40;11.38;;;;;;;;;;5079370;28;20028;-79
2022/02/15 10:13:44;;;;;;;14.70;9.73;;;;;;;;;;5079096;28;20029;-79
2022/02/15 10:16:10;;;;;;;16.02;9.07;;;;;;;;;;5077955;28;20037;-79
2022/02/15 10:18:37;;;;;;;13.38;9.32;;;;;;;;;;5079064;28;20028;-79
2022/02/15 10:21:04;;;;;;;19.35;11.63;;;;;;;;;;5079028;28;20016;-79
2022/02/15 10:23:31;;;;;;;143.25;97.43;;;;;;;;;;5078946;28;20024;-79
2022/02/15 10:25:58;;;;;;;528.67;362.58;;;;;;;;;;5077798;28;20472;-79
2022/02/15 10:28:25;;;;;;;266.75;142.20;;;;;;;;;;5078804;28;20174;-80
2022/02/15 10:30:52;;;;;;;501.52;304.98;;;;;;;;;;5078675;28;20025;-79
2022/02/15 10:33:20;;;;;;;538.00;327.88;;;;;;;;;;5078770;28;20027;-79
2022/02/15 10:35:56;;;;;;;250.23;133.90;;;;;;;;;;5078474;28;20028;-79
2022/02/15 10:38:26;;;;;;;300.40;154.57;;;;;;;;;;5074036;28;20104;-81
2022/02/15 10:41:00;;;;;;;96.65;50.30;;;;;;;;;;5067793;28;20045;-86
2022/02/15 10:43:27;;;;;;;92.90;46.65;;;;;;;;;;5059537;28;20021;-88
2022/02/15 10:45:53;;;;;;;83.82;40.10;;;;;;;;;;5059247;28;20104;-85
2022/02/15 10:48:29;;;;;;;42.45;23.23;;;;;;;;;;5059279;28;20038;-85
2022/02/15 10:50:55;;;;;;;32.10;16.85;;;;;;;;;;5057806;28;20346;-85
2022/02/15 10:53:23;;;;;;;27.38;16.85;;;;;;;;;;5057946;28;20063;-85
2022/02/15 10:55:49;;;;;;;30.67;16.98;;;;;;;;;;5059101;28;20017;-85
2022/02/15 10:58:16;;;;;;;37.60;19.50;;;;;;;;;;5058029;28;20061;-85
2022/02/15 11:00:42;;;;;;;36.63;17.95;;;;;;;;;;5057681;28;20036;-86
2022/02/15 11:03:10;;;;;;;31.33;13.18;;;;;;;;;;5058792;28;20050;-86
2022/02/15 11:05:36;;;;;;;35.45;17.38;;;;;;;;;;5058712;28;20370;-85
2022/02/15 11:08:02;;;;;;;44.70;23.30;;;;;;;;;;5058511;28;20051;-85
2022/02/15 11:10:32;;;;;;;33.40;19.15;;;;;;;;;;5058867;28;20176;-86
2022/02/15 11:13:01;;;;;;;61.67;27.00;;;;;;;;;;5058595;28;20029;-85
2022/02/15 11:15:33;;;;;;;60.42;23.45;;;;;;;;;;5057655;28;20029;-85
2022/02/15 11:17:59;;;;;;;31.52;16.13;;;;;;;;;;5058601;28;20060;-86
2022/02/15 11:20:29;;;;;;;30.15;14.15;;;;;;;;;;5058334;28;20021;-85
2022/02/15 11:22:56;;;;;;;24.98;10.68;;;;;;;;;;5057420;28;20021;-86
2022/02/15 11:25:49;;;;;;;22.13;11.90;;;;;;;;;;5058212;28;20024;-86
2022/02/15 11:28:14;;;;;;;;;;;;;;;;;;5055900;28;20067;-85
2022/02/15 11:30:43;;;;;;;43.47;15.73;;;;;;;;;;5058311;28;20241;-85
2022/02/15 11:33:09;;;;;;;53.42;16.10;;;;;;;;;;5057263;28;20463;-86
2022/02/15 11:35:36;;;;;;;45.53;16.45;;;;;;;;;;5057299;28;20033;-85
2022/02/15 11:38:09;;;;;;;34.05;15.15;;;;;;;;;;5056941;28;20045;-86
2022/02/15 11:40:35;;;;;;;34.35;15.75;;;;;;;;;;5058037;28;20055;-85
2022/02/15 11:43:05;;;;;;;40.83;13.82;;;;;;;;;;5057935;28;20032;-86
2022/02/15 11:45:32;;;;;;;44.10;19.45;;;;;;;;;;5058044;28;20031;-85
2022/02/15 11:48:09;;;;;;;52.08;19.23;;;;;;;;;;5056994;28;20025;-86
2022/02/15 11:50:47;;;;;;;32.97;10.50;;;;;;;;;;5055988;28;20025;-86
2022/02/15 11:53:16;;;;;;;16.17;8.25;;;;;;;;;;5058063;28;20025;-86
2022/02/15 11:55:43;;;;;;;25.20;10.75;;;;;;;;;;5057928;28;20025;-86
2022/02/15 11:58:09;;;;;;;63.45;19.02;;;;;;;;;;5057654;28;20021;-86
2022/02/15 12:00:36;;;;;;;34.42;12.35;;;;;;;;;;5056788;28;20036;-85
2022/02/15 12:03:02;;;;;;;30.60;12.18;;;;;;;;;;5057585;28;20415;-86
2022/02/15 12:05:34;;;;;;;43.28;13.35;;;;;;;;;;5057648;28;20033;-86
2022/02/15 12:08:00;;;;;;;40.40;15.50;;;;;;;;;;5056345;28;20053;-86
2022/02/15 12:10:38;;;;;;;41.72;18.17;;;;;;;;;;5057651;28;20057;-86
2022/02/15 12:13:04;;;;;;;26.42;11.68;;;;;;;;;;5057574;28;20021;-86
2022/02/15 12:15:39;;;;;;;45.95;16.17;;;;;;;;;;5057369;28;20029;-86
2022/02/15 12:18:08;;;;;;;41.83;13.32;;;;;;;;;;5057757;28;20056;-86
2022/02/15 12:20:34;;;;;;;19.55;8.05;;;;;;;;;;5057558;28;20040;-86
2022/02/15 12:23:02;;;;;;;13.05;5.70;;;;;;;;;;5057498;28;20035;-86
2022/02/15 12:25:29;;;;;;;24.75;8.10;;;;;;;;;;5057445;28;20043;-85
2022/02/15 12:27:57;;;;;;;22.67;7.45;;;;;;;;;;5057616;28;20021;-86
2022/02/15 12:30:23;;;;;;;20.88;7.28;;;;;;;;;;5057319;28;20056;-85
2022/02/15 12:32:50;;;;;;;26.42;8.35;;;;;;;;;;5057546;28;20066;-86
2022/02/15 12:35:28;;;;;;;25.77;8.95;;;;;;;;;;5057393;28;20025;-86
2022/02/15 12:38:01;;;;;;;33.63;9.02;;;;;;;;;;5057641;28;20037;-86
2022/02/15 12:40:28;;;;;;;38.33;10.20;;;;;;;;;;5057210;28;20033;-85
2022/02/15 12:42:54;;;;;;;40.47;11.27;;;;;;;;;;5057144;28;20028;-85
2022/02/15 12:45:20;;;;;;;29.38;7.38;;;;;;;;;;5057632;28;20154;-85
2022/02/15 12:47:46;;;;;;;46.30;11.13;;;;;;;;;;5057450;28;20044;-85
2022/02/15 12:50:14;;;;;;;123.00;27.05;;;;;;;;;;5056085;28;20068;-87
2022/02/15 12:52:40;;;;;;;88.75;20.17;;;;;;;;;;5057171;28;20371;-86
2022/02/15 12:55:17;;;;;;;71.88;20.77;;;;;;;;;;5057161;28;20044;-86
2022/02/15 12:57:48;;;;;;;95.75;25.98;;;;;;;;;;5077296;28;20020;-86
2022/02/15 13:00:15;;;;;;;57.75;17.40;;;;;;;;;;5077251;28;20047;-86
2022/02/15 13:02:45;;;;;;;145.85;40.78;;;;;;;;;;5078189;28;20299;-86
2022/02/15 13:05:11;;;;;;;53.53;15.52;;;;;;;;;;5080845;28;20025;-86
2022/02/15 13:07:47;;;;;;;19.83;7.55;;;;;;;;;;5079759;28;20048;-86
2022/02/15 13:10:13;;;;;;;115.95;32.10;;;;;;;;;;5081230;28;20028;-86
2022/02/15 13:12:39;;;;;;;51.35;18.67;;;;;;;;;;5080980;28;20311;-86
2022/02/15 13:15:06;;;;;;;92.55;28.42;;;;;;;;;;5080842;28;20055;-86
2022/02/15 13:17:38;;;;;;;148.70;42.70;;;;;;;;;;5080712;28;20021;-86
2022/02/15 13:20:11;;;;;;;136.63;39.63;;;;;;;;;;5079850;28;20130;-87
2022/02/15 13:22:37;;;;;;;96.10;28.67;;;;;;;;;;5081037;28;20013;-86
2022/02/15 13:25:04;;;;;;;57.92;18.77;;;;;;;;;;5079718;28;20031;-86
2022/02/15 13:27:31;;;;;;;77.07;22.75;;;;;;;;;;5079553;28;20028;-86
2022/02/15 13:29:57;;;;;;;47.65;15.73;;;;;;;;;;5080581;28;20031;-86
2022/02/15 13:32:28;;;;;;;311.20;88.50;;;;;;;;;;5079262;28;20032;-86
2022/02/15 13:34:54;;;;;;;164.15;48.90;;;;;;;;;;5080508;28;20021;-86
2022/02/15 13:37:20;;;;;;;102.88;32.70;;;;;;;;;;5080375;28;20393;-86
2022/02/15 13:39:46;;;;;;;410.52;112.00;;;;;;;;;;5080357;28;20043;-86
2022/02/15 13:42:12;;;;;;;119.22;34.85;;;;;;;;;;5079123;28;20025;-85
2022/02/15 13:44:41;;;;;;;103.25;31.25;;;;;;;;;;5079292;28;20059;-86
2022/02/15 13:47:07;;;;;;;320.13;99.75;;;;;;;;;;5080128;28;20024;-86
2022/02/15 13:49:33;;;;;;;163.77;46.58;;;;;;;;;;5080062;28;20028;-86
2022/02/15 13:51:59;;;;;;;87.30;27.38;;;;;;;;;;5080108;28;20060;-86
2022/02/15 13:54:25;;;;;;;157.75;43.63;;;;;;;;;;5079980;28;20402;-86
2022/02/15 13:56:51;;;;;;;102.68;30.25;;;;;;;;;;5080279;28;20037;-86
2022/02/15 13:59:17;;;;;;;428.05;121.63;;;;;;;;;;5080105;28;20036;-86
2022/02/15 14:01:51;;;;;;;267.30;83.07;;;;;;;;;;5078830;28;20052;-86
2022/02/15 14:04:20;;;;;;;78.97;29.55;;;;;;;;;;5079890;28;20032;-86
2022/02/15 14:06:47;;;;;;;244.93;85.85;;;;;;;;;;5079564;28;20044;-86
2022/02/15 14:09:13;;;;;;;238.88;80.32;;;;;;;;;;5078788;28;20082;-86
2022/02/15 14:11:39;;;;;;;172.20;59.92;;;;;;;;;;5078821;28;20021;-86
2022/02/15 14:14:05;;;;;;;99.45;39.03;;;;;;;;;;5078334;28;20020;-86
2022/02/15 14:16:31;;;;;;;170.25;61.22;;;;;;;;;;5079696;28;20028;-86
2022/02/15 14:18:57;;;;;;;111.70;40.25;;;;;;;;;;5079149;28;20084;-85
2022/02/15 14:21:23;;;;;;;255.77;94.43;;;;;;;;;;5079536;28;20104;-85
2022/02/15 14:23:49;;;;;;;128.98;48.50;;;;;;;;;;5078488;28;20452;-84
2022/02/15 14:26:16;;;;;;;675.25;291.17;;;;;;;;;;5079543;28;20021;-85
2022/02/15 14:28:42;;;;;;;273.00;98.72;;;;;;;;;;5078656;28;20070;-85
2022/02/15 14:31:09;;;;;;;487.80;192.40;;;;;;;;;;5079544;28;20406;-85
2022/02/15 14:33:36;;;;;;;100.45;40.67;;;;;;;;;;5078252;28;20055;-86
2022/02/15 14:36:03;;;;;;;184.85;68.35;;;;;;;;;;5079202;28;20017;-85